Phoenix, Arizona
Traffic Map
Current Weather Conditions
Phoenix, Arizona
Clear
Clear
28°
Feels Like: 28°
Wind Chill: 28° Ceiling: Unl
Heat Index: 28° Visibility: 10mi
Dew Point: -3° Wind: 0mph
Humidity: 13% Direction: ° ()
Pressure: 30.16in Gusts: 0mph
Raw Report DataKPHX 221851Z 00000KT 10SM CLR 28/M03 A3016 RMK AO2 SLP198 T02781028
Traffic Incident Summary
Active as of:
Severity:
Category:
InformationThere was an issue retrieving the traffic information for this location. Please try a different location or try again shortly.
Advertisements